createdAt,value
2022-12-07T00:01:45.825Z,15.25
2022-12-07T00:04:16.872Z,14.25
2022-12-07T00:06:47.463Z,16.00
2022-12-07T00:09:17.938Z,15.00
2022-12-07T00:11:50.361Z,15.00
2022-12-07T00:14:20.638Z,15.00
2022-12-07T00:16:51.866Z,16.25
2022-12-07T00:19:20.913Z,16.00
2022-12-07T00:21:49.247Z,15.00
2022-12-07T00:24:18.103Z,15.50
2022-12-07T00:26:46.660Z,15.25
2022-12-07T00:29:21.643Z,15.25
2022-12-07T00:31:50.016Z,14.00
2022-12-07T00:34:21.932Z,14.25
2022-12-07T00:36:51.029Z,15.00
2022-12-07T00:39:19.836Z,16.00
2022-12-07T00:41:48.321Z,14.00
2022-12-07T00:44:18.272Z,15.75
2022-12-07T00:46:47.763Z,15.00
2022-12-07T00:49:16.794Z,16.33
2022-12-07T00:51:44.974Z,15.25
2022-12-07T00:54:13.476Z,16.25
2022-12-07T00:56:41.627Z,16.25
2022-12-07T00:59:15.572Z,15.00
2022-12-07T01:01:44.096Z,15.00
2022-12-07T01:04:14.106Z,15.00
2022-12-07T01:06:42.688Z,15.25
2022-12-07T01:09:11.337Z,16.00
2022-12-07T01:11:39.585Z,15.25
2022-12-07T01:14:08.174Z,15.00
2022-12-07T01:16:36.409Z,16.25
2022-12-07T01:19:05.916Z,16.25
2022-12-07T01:21:37.163Z,16.25
2022-12-07T01:24:08.339Z,15.00
2022-12-07T01:26:36.584Z,14.00
2022-12-07T01:29:05.361Z,15.00
2022-12-07T01:31:33.742Z,14.00
2022-12-07T01:34:02.323Z,15.00
2022-12-07T01:36:36.694Z,14.25
2022-12-07T01:39:07.568Z,15.00
2022-12-07T01:41:38.113Z,14.00
2022-12-07T01:44:25.375Z,15.25
2022-12-07T01:47:02.891Z,14.50
2022-12-07T01:49:43.139Z,14.25
2022-12-07T01:52:33.098Z,14.50
2022-12-07T01:55:09.449Z,14.00
2022-12-07T01:57:41.413Z,14.00
2022-12-07T02:00:10.833Z,14.25
2022-12-07T02:02:55.844Z,14.33
2022-12-07T02:05:26.726Z,14.00
2022-12-07T02:07:58.238Z,14.33
2022-12-07T02:10:30.910Z,14.25
2022-12-07T02:13:08.248Z,14.00
2022-12-07T02:16:07.175Z,14.25
2022-12-07T02:19:08.957Z,14.00
2022-12-07T02:22:01.876Z,14.00
2022-12-07T02:25:06.715Z,14.00
2022-12-07T02:27:39.448Z,14.00
2022-12-07T02:30:11.707Z,15.00
2022-12-07T02:33:06.094Z,14.00
2022-12-07T02:36:01.251Z,13.33
2022-12-07T02:38:40.323Z,13.00
2022-12-07T02:41:13.899Z,14.00
2022-12-07T02:43:46.569Z,14.50
2022-12-07T02:46:25.595Z,14.50
2022-12-07T02:48:55.773Z,14.00
2022-12-07T02:51:24.193Z,15.00
2022-12-07T02:53:53.323Z,14.25
2022-12-07T02:56:44.779Z,13.00
2022-12-07T02:59:22.339Z,14.00
2022-12-07T03:02:11.459Z,14.00
2022-12-07T03:05:15.154Z,14.50
2022-12-07T03:08:05.245Z,15.00
2022-12-07T03:10:57.706Z,14.75
2022-12-07T03:13:36.558Z,14.25
2022-12-07T03:16:24.880Z,14.00
2022-12-07T03:19:08.008Z,15.00
2022-12-07T03:21:49.368Z,14.25
2022-12-07T03:24:21.361Z,15.00
2022-12-07T03:26:54.363Z,14.00
2022-12-07T03:29:29.312Z,14.25
2022-12-07T03:32:06.709Z,15.00
2022-12-07T03:34:46.884Z,13.50
2022-12-07T03:37:37.698Z,15.25
2022-12-07T03:40:08.755Z,15.00
2022-12-07T03:42:37.255Z,14.00
2022-12-07T03:45:06.466Z,14.00
2022-12-07T03:47:44.638Z,14.25
2022-12-07T03:50:29.414Z,15.25
2022-12-07T03:53:07.415Z,15.00
2022-12-07T03:55:38.923Z,14.25
2022-12-07T03:58:12.803Z,15.25
2022-12-07T04:00:43.227Z,16.25
2022-12-07T04:03:13.054Z,14.00
2022-12-07T04:05:42.329Z,15.25
2022-12-07T04:08:11.811Z,15.00
2022-12-07T04:10:40.327Z,15.00
2022-12-07T04:13:10.085Z,16.25
2022-12-07T04:15:38.165Z,15.00
2022-12-07T04:18:06.695Z,16.25
2022-12-07T04:20:34.776Z,15.00
2022-12-07T04:23:04.511Z,15.75
2022-12-07T04:25:32.673Z,13.25
2022-12-07T04:28:01.696Z,14.00
2022-12-07T04:30:29.846Z,15.00
2022-12-07T04:32:59.268Z,15.25
2022-12-07T04:35:27.335Z,14.33
2022-12-07T04:37:55.795Z,15.25
2022-12-07T04:40:23.925Z,15.00
2022-12-07T04:42:53.497Z,15.00
2022-12-07T04:45:21.627Z,15.33
2022-12-07T04:47:50.109Z,15.25
2022-12-07T04:50:18.357Z,15.00
2022-12-07T04:52:46.847Z,18.25
2022-12-07T04:55:14.896Z,15.00
2022-12-07T04:57:43.196Z,16.25
2022-12-07T05:00:11.855Z,15.00
2022-12-07T05:02:41.418Z,16.00
2022-12-07T05:05:09.694Z,14.25
2022-12-07T05:07:38.345Z,15.75
2022-12-07T05:10:07.661Z,14.25
2022-12-07T05:12:36.155Z,15.00
2022-12-07T05:15:05.315Z,15.00
2022-12-07T05:17:33.998Z,15.33
2022-12-07T05:20:02.370Z,15.00
2022-12-07T05:22:31.125Z,15.00
2022-12-07T05:24:59.737Z,14.25
2022-12-07T05:27:28.267Z,15.00
2022-12-07T05:29:56.439Z,14.33
2022-12-07T05:32:24.827Z,14.00
2022-12-07T05:34:53.843Z,14.33
2022-12-07T05:37:22.275Z,15.33
2022-12-07T05:39:50.778Z,13.25
2022-12-07T05:42:19.119Z,14.00
2022-12-07T05:44:48.073Z,14.00
2022-12-07T05:47:18.667Z,15.00
2022-12-07T05:49:46.951Z,14.00
2022-12-07T05:52:15.459Z,14.00
2022-12-07T05:54:43.689Z,13.50
2022-12-07T05:57:13.257Z,14.00
2022-12-07T05:59:42.524Z,14.25
2022-12-07T06:02:15.753Z,14.00
2022-12-07T06:04:46.359Z,14.00
2022-12-07T06:07:16.440Z,14.00
2022-12-07T06:09:44.848Z,14.00
2022-12-07T06:12:33.078Z,13.00
2022-12-07T06:15:01.317Z,12.50
2022-12-07T06:17:29.865Z,14.25
2022-12-07T06:19:57.948Z,13.00
2022-12-07T06:22:26.308Z,13.00
2022-12-07T06:24:54.429Z,13.25
2022-12-07T06:27:22.898Z,13.75
2022-12-07T06:29:50.998Z,14.25
2022-12-07T06:32:19.383Z,14.25
2022-12-07T06:34:48.803Z,13.00
2022-12-07T06:37:18.058Z,13.00
2022-12-07T06:39:47.313Z,13.00
2022-12-07T06:42:15.824Z,13.25
2022-12-07T06:44:44.040Z,13.00
2022-12-07T06:47:43.992Z,13.00
2022-12-07T06:50:14.496Z,13.00
2022-12-07T06:52:43.137Z,14.25
2022-12-07T06:55:12.252Z,13.25
2022-12-07T06:57:40.432Z,13.00
2022-12-07T07:00:18.411Z,13.00
2022-12-07T07:02:50.001Z,14.00
2022-12-07T07:05:19.867Z,13.33
2022-12-07T07:08:20.385Z,13.00
2022-12-07T07:10:38.500Z,13.00
2022-12-07T07:13:06.941Z,12.00
2022-12-07T07:15:35.900Z,13.25
2022-12-07T07:18:07.863Z,13.50
2022-12-07T07:20:39.048Z,13.00
2022-12-07T07:23:08.298Z,13.33
2022-12-07T07:25:36.971Z,14.25
2022-12-07T07:28:06.057Z,12.25
2022-12-07T07:30:34.737Z,13.25
2022-12-07T07:33:04.638Z,14.00
2022-12-07T07:35:36.047Z,13.00
2022-12-07T07:38:04.493Z,12.00
2022-12-07T07:40:34.037Z,12.25
2022-12-07T07:43:02.252Z,12.25
2022-12-07T07:45:30.882Z,12.25
2022-12-07T07:47:59.070Z,13.00
2022-12-07T07:50:29.001Z,13.00
2022-12-07T07:52:58.817Z,12.00
2022-12-07T07:55:27.339Z,12.25
2022-12-07T07:57:55.464Z,12.25
2022-12-07T08:00:24.012Z,12.25
2022-12-07T08:02:53.089Z,12.00
2022-12-07T08:05:21.612Z,13.00
2022-12-07T08:07:49.724Z,12.25
2022-12-07T08:10:18.238Z,12.25
2022-12-07T08:13:05.239Z,12.50
2022-12-07T08:15:33.737Z,13.50
2022-12-07T08:18:01.899Z,13.00
2022-12-07T08:20:34.910Z,13.50
2022-12-07T08:23:03.803Z,14.00
2022-12-07T08:25:33.709Z,12.00
2022-12-07T08:28:02.570Z,14.00
2022-12-07T08:30:33.051Z,13.25
2022-12-07T08:33:01.165Z,14.00
2022-12-07T08:35:29.699Z,14.25
2022-12-07T08:37:59.323Z,13.00
2022-12-07T08:40:28.248Z,14.25
2022-12-07T08:48:11.526Z,13.25
2022-12-07T08:50:47.554Z,13.25
2022-12-07T08:53:17.732Z,13.50
2022-12-07T08:55:47.981Z,15.00
2022-12-07T08:58:16.205Z,13.00
2022-12-07T09:00:44.611Z,13.00
2022-12-07T09:03:12.718Z,14.00
2022-12-07T09:05:41.496Z,14.33
2022-12-07T09:08:09.989Z,14.00
2022-12-07T09:10:38.422Z,15.00
2022-12-07T09:13:06.524Z,14.00
2022-12-07T09:15:35.706Z,17.00
2022-12-07T09:18:03.891Z,15.00
2022-12-07T09:20:32.304Z,14.25
2022-12-07T09:23:00.459Z,15.33
2022-12-07T09:25:29.289Z,16.00
2022-12-07T09:27:59.191Z,16.25
2022-12-07T09:30:29.601Z,15.00
2022-12-07T09:32:58.390Z,15.00
2022-12-07T09:35:26.859Z,16.75
2022-12-07T09:37:55.271Z,17.00
2022-12-07T09:40:27.470Z,16.00
2022-12-07T09:42:57.946Z,16.25
2022-12-07T09:45:36.161Z,16.25
2022-12-07T09:48:05.423Z,16.00
2022-12-07T09:50:34.580Z,18.00
2022-12-07T09:53:36.742Z,16.00
2022-12-07T09:56:05.891Z,18.00
2022-12-07T09:58:34.943Z,17.00
2022-12-07T10:01:14.380Z,16.25
2022-12-07T10:03:49.680Z,16.00
2022-12-07T10:06:19.121Z,16.00
2022-12-07T10:08:47.620Z,17.00
2022-12-07T10:11:18.036Z,17.00
2022-12-07T10:13:51.093Z,17.00
2022-12-07T10:16:26.066Z,16.00
2022-12-07T10:18:54.569Z,17.25
2022-12-07T10:21:27.657Z,18.25
2022-12-07T10:24:16.133Z,17.00
2022-12-07T10:26:48.569Z,19.25
2022-12-07T10:29:22.579Z,18.00
2022-12-07T10:31:57.751Z,18.00
2022-12-07T10:34:36.481Z,20.00
2022-12-07T10:37:17.928Z,21.00
2022-12-07T10:39:54.231Z,18.25
2022-12-07T10:42:30.751Z,19.00
2022-12-07T10:45:18.939Z,20.25
2022-12-07T10:48:10.435Z,18.00
2022-12-07T10:51:13.953Z,18.00
2022-12-07T10:54:04.232Z,17.50
2022-12-07T10:56:41.590Z,17.25
2022-12-07T10:59:24.751Z,17.50
2022-12-07T11:02:22.204Z,17.00
2022-12-07T11:05:28.190Z,16.00
2022-12-07T11:08:01.932Z,17.00
2022-12-07T11:10:40.917Z,16.00
2022-12-07T11:13:28.364Z,17.00
2022-12-07T11:16:06.259Z,17.00
2022-12-07T11:18:37.446Z,17.00
2022-12-07T11:21:33.262Z,17.00
2022-12-07T11:24:18.285Z,19.00
2022-12-07T11:27:05.837Z,19.00
2022-12-07T11:29:39.579Z,19.33
2022-12-07T11:32:27.143Z,21.50
2022-12-07T11:35:33.056Z,20.25
2022-12-07T11:38:15.347Z,23.50
2022-12-07T11:40:48.485Z,21.25
2022-12-07T11:43:24.165Z,21.00
2022-12-07T11:46:14.606Z,22.00
2022-12-07T11:49:40.006Z,21.00
2022-12-07T11:52:20.613Z,21.00
2022-12-07T11:54:53.554Z,21.00
2022-12-07T11:57:44.823Z,21.25
2022-12-07T12:00:18.759Z,21.50
2022-12-07T12:03:25.929Z,20.00
2022-12-07T12:05:55.342Z,19.00
2022-12-07T12:11:40.466Z,19.00
2022-12-07T12:14:41.921Z,19.00
2022-12-07T12:17:43.154Z,18.00
2022-12-07T12:20:38.897Z,17.25
2022-12-07T12:23:14.044Z,16.25
2022-12-07T12:25:48.693Z,17.25
2022-12-07T12:28:26.583Z,18.00
2022-12-07T12:31:20.697Z,17.50
2022-12-07T12:33:55.602Z,19.00
2022-12-07T12:36:28.344Z,17.50
2022-12-07T12:39:00.542Z,16.50
2022-12-07T12:42:01.220Z,18.25
2022-12-07T12:44:29.846Z,17.00
2022-12-07T12:47:00.953Z,17.00
2022-12-07T12:49:29.423Z,16.00
2022-12-07T12:52:20.623Z,17.00
2022-12-07T12:55:13.854Z,17.00
2022-12-07T12:57:42.092Z,17.00
2022-12-07T13:00:16.653Z,16.00
2022-12-07T13:02:54.280Z,17.75
2022-12-07T13:05:25.484Z,16.25
2022-12-07T13:07:55.292Z,15.50
2022-12-07T13:10:32.402Z,17.25
2022-12-07T13:13:16.168Z,15.25
2022-12-07T13:15:51.923Z,17.25
2022-12-07T13:18:28.904Z,17.25
2022-12-07T13:21:06.354Z,18.00
2022-12-07T13:23:46.790Z,16.25
2022-12-07T13:26:25.103Z,17.25
2022-12-07T13:29:11.506Z,17.00
2022-12-07T13:32:09.048Z,17.50
2022-12-07T13:34:39.622Z,18.25
2022-12-07T13:37:26.272Z,18.75
2022-12-07T13:39:57.743Z,18.00
2022-12-07T13:42:32.425Z,16.00
2022-12-07T13:45:15.324Z,17.50
2022-12-07T13:47:53.354Z,16.33
2022-12-07T13:50:25.906Z,17.33
2022-12-07T13:52:59.933Z,18.00
2022-12-07T13:55:31.265Z,17.00
2022-12-07T13:58:01.139Z,19.00
2022-12-07T14:00:31.354Z,18.00
2022-12-07T14:03:05.921Z,18.50
2022-12-07T14:05:36.844Z,19.00
2022-12-07T14:08:22.238Z,19.25
2022-12-07T14:10:51.603Z,17.50
2022-12-07T14:13:32.513Z,19.00
2022-12-07T14:16:03.154Z,18.25
2022-12-07T14:18:41.433Z,18.25
2022-12-07T14:21:24.788Z,19.25
2022-12-07T14:24:18.877Z,18.00
2022-12-07T14:26:49.773Z,20.00
2022-12-07T14:29:26.895Z,19.25
2022-12-07T14:31:56.619Z,19.00
2022-12-07T14:34:26.545Z,20.00
2022-12-07T14:36:54.808Z,19.00
2022-12-07T14:39:23.300Z,19.00
2022-12-07T14:41:54.623Z,20.33
2022-12-07T14:44:28.129Z,20.00
2022-12-07T14:49:46.585Z,21.00
2022-12-07T14:55:15.951Z,20.25
2022-12-07T14:57:44.094Z,20.50
2022-12-07T15:00:16.568Z,20.75
2022-12-07T15:02:46.743Z,21.00
2022-12-07T15:05:16.514Z,22.00
2022-12-07T15:08:12.029Z,20.00
2022-12-07T15:10:41.359Z,21.00
2022-12-07T15:13:28.186Z,22.00
2022-12-07T15:15:57.050Z,21.00
2022-12-07T15:18:25.466Z,22.00
2022-12-07T15:20:53.875Z,21.25
2022-12-07T15:23:21.927Z,21.50
2022-12-07T15:25:50.587Z,23.00
2022-12-07T15:28:18.706Z,21.25
2022-12-07T15:30:47.459Z,20.50
2022-12-07T15:33:16.078Z,23.00
2022-12-07T15:35:46.550Z,23.00
2022-12-07T15:38:14.792Z,21.00
2022-12-07T15:40:43.473Z,23.00
2022-12-07T15:43:31.583Z,21.25
2022-12-07T15:46:01.328Z,22.00
2022-12-07T15:48:29.913Z,22.00
2022-12-07T15:51:07.124Z,23.00
2022-12-07T15:53:36.475Z,22.00
2022-12-07T15:56:09.623Z,23.00
2022-12-07T15:58:39.014Z,22.25
2022-12-07T16:01:19.177Z,23.00
2022-12-07T16:03:48.614Z,22.50
2022-12-07T16:06:19.233Z,21.75
2022-12-07T16:08:48.469Z,21.00
2022-12-07T16:11:17.053Z,24.00
2022-12-07T16:13:45.355Z,23.00
2022-12-07T16:16:16.444Z,22.00
2022-12-07T16:18:45.669Z,21.33
2022-12-07T16:21:21.797Z,23.25
2022-12-07T16:23:53.381Z,22.25
2022-12-07T16:26:23.046Z,23.00
2022-12-07T16:28:53.288Z,24.00
2022-12-07T16:31:24.239Z,23.00
2022-12-07T16:33:55.932Z,25.00
2022-12-07T16:39:15.124Z,22.50
2022-12-07T16:41:43.864Z,24.00
2022-12-07T16:44:13.720Z,22.00
2022-12-07T16:46:44.099Z,24.50
2022-12-07T16:49:14.313Z,24.00
2022-12-07T16:51:44.288Z,23.25
2022-12-07T16:54:13.924Z,24.25
2022-12-07T16:56:42.718Z,23.00
2022-12-07T16:59:10.846Z,23.33
2022-12-07T17:01:40.754Z,26.00
2022-12-07T17:04:10.268Z,25.00
2022-12-07T17:06:39.043Z,26.00
2022-12-07T17:09:11.876Z,24.33
2022-12-07T17:11:45.384Z,27.00
2022-12-07T17:14:32.796Z,24.00
2022-12-07T17:17:01.360Z,25.00
2022-12-07T17:19:29.603Z,24.50
2022-12-07T17:21:58.154Z,27.00
2022-12-07T17:24:26.434Z,26.75
2022-12-07T17:26:54.903Z,23.50
2022-12-07T17:29:23.104Z,25.00
2022-12-07T17:31:52.205Z,25.75
2022-12-07T17:34:20.695Z,25.50
2022-12-07T17:36:49.384Z,24.00
2022-12-07T17:39:18.934Z,24.00
2022-12-07T17:42:06.055Z,27.00
2022-12-07T17:44:34.399Z,25.00
2022-12-07T17:47:04.336Z,26.00
2022-12-07T17:49:32.696Z,25.50
2022-12-07T17:52:19.583Z,24.50
2022-12-07T17:54:47.963Z,26.33
2022-12-07T17:57:16.445Z,25.00
2022-12-07T17:59:45.505Z,24.75
2022-12-07T18:02:14.155Z,25.00
2022-12-07T18:04:43.473Z,25.00
2022-12-07T18:07:12.123Z,23.00
2022-12-07T18:09:40.354Z,26.33
2022-12-07T18:12:09.644Z,24.00
2022-12-07T18:14:38.204Z,27.00
2022-12-07T18:17:06.826Z,25.00
2022-12-07T18:19:37.429Z,25.00
2022-12-07T18:22:06.195Z,24.50
2022-12-07T18:24:37.093Z,25.25
2022-12-07T18:27:14.174Z,28.00
2022-12-07T18:29:42.794Z,26.00
2022-12-07T18:32:10.972Z,26.25
2022-12-07T18:34:41.544Z,23.00
2022-12-07T18:37:09.713Z,27.00
2022-12-07T18:39:38.295Z,28.50
2022-12-07T18:42:06.673Z,27.00
2022-12-07T18:44:35.154Z,26.00
2022-12-07T18:47:03.422Z,26.00
2022-12-07T18:49:32.104Z,27.00
2022-12-07T18:52:00.224Z,25.25
2022-12-07T18:54:28.904Z,26.00
2022-12-07T18:56:57.257Z,24.25
2022-12-07T18:59:44.183Z,25.00
2022-12-07T19:02:12.433Z,24.25
2022-12-07T19:04:41.482Z,24.00
2022-12-07T19:07:09.688Z,25.00
2022-12-07T19:09:38.543Z,25.25
2022-12-07T19:12:07.192Z,25.25
2022-12-07T19:14:37.505Z,21.33
2022-12-07T19:17:11.917Z,23.00
2022-12-07T19:19:44.457Z,24.00
2022-12-07T19:22:15.443Z,24.00
2022-12-07T19:24:50.053Z,22.50
2022-12-07T19:27:18.824Z,23.00
2022-12-07T19:29:47.788Z,24.25
2022-12-07T19:32:17.014Z,25.00
2022-12-07T19:34:48.235Z,24.25
2022-12-07T19:37:19.264Z,25.50
2022-12-07T19:39:48.927Z,25.00
2022-12-07T19:42:18.187Z,23.00
2022-12-07T19:44:47.926Z,24.25
2022-12-07T19:47:17.720Z,24.25
2022-12-07T19:49:46.532Z,21.00
2022-12-07T19:52:14.739Z,22.00
2022-12-07T19:54:43.229Z,22.00
2022-12-07T19:57:16.214Z,22.50
2022-12-07T19:59:46.476Z,22.50
2022-12-07T20:02:16.448Z,25.00
2022-12-07T20:04:46.503Z,22.25
2022-12-07T20:07:15.402Z,23.50
2022-12-07T20:09:43.901Z,22.00
2022-12-07T20:12:30.974Z,23.00
2022-12-07T20:14:59.593Z,23.00
2022-12-07T20:17:27.896Z,21.33
2022-12-07T20:19:56.723Z,21.25
2022-12-07T20:22:24.915Z,23.00
2022-12-07T20:24:53.431Z,23.25
2022-12-07T20:27:21.813Z,23.00
2022-12-07T20:29:50.985Z,22.25
2022-12-07T20:32:19.172Z,22.00
2022-12-07T20:34:47.961Z,23.00
2022-12-07T20:37:16.262Z,25.00
2022-12-07T20:39:44.833Z,23.00
2022-12-07T20:42:32.374Z,25.00
2022-12-07T20:45:03.484Z,25.00
2022-12-07T20:47:33.493Z,23.00
2022-12-07T20:50:03.307Z,23.00
2022-12-07T20:52:31.915Z,22.00
2022-12-07T20:55:00.656Z,24.25
2022-12-07T20:57:29.224Z,24.00
2022-12-07T20:59:58.743Z,24.00
2022-12-07T21:02:28.215Z,23.33
2022-12-07T21:04:56.823Z,24.00
2022-12-07T21:07:25.754Z,25.00
2022-12-07T21:09:54.352Z,24.00
2022-12-07T21:12:22.525Z,24.33
2022-12-07T21:14:50.925Z,24.00
2022-12-07T21:17:19.066Z,23.00
2022-12-07T21:19:47.587Z,25.00
2022-12-07T21:22:15.748Z,24.50
2022-12-07T21:24:44.525Z,24.00
2022-12-07T21:27:12.625Z,25.50
2022-12-07T21:29:44.158Z,23.00
2022-12-07T21:32:14.696Z,25.25
2022-12-07T21:34:43.239Z,25.75
2022-12-07T21:37:11.974Z,25.50
2022-12-07T21:39:40.462Z,26.00
2022-12-07T21:42:08.646Z,25.00
2022-12-07T21:44:37.285Z,26.00
2022-12-07T21:47:05.638Z,27.67
2022-12-07T21:49:35.978Z,25.50
2022-12-07T21:52:04.754Z,26.50
2022-12-07T21:54:33.611Z,26.50
2022-12-07T21:57:02.372Z,25.75
2022-12-07T21:59:30.851Z,27.00
2022-12-07T22:01:59.004Z,26.00
2022-12-07T22:04:28.046Z,28.00
2022-12-07T22:06:57.489Z,27.00
2022-12-07T22:09:27.435Z,24.00
2022-12-07T22:11:55.623Z,28.25
2022-12-07T22:14:42.529Z,25.25
2022-12-07T22:17:10.552Z,27.00
2022-12-07T22:19:38.981Z,26.50
2022-12-07T22:22:07.104Z,26.00
2022-12-07T22:24:35.715Z,26.25
2022-12-07T22:27:03.952Z,26.67
2022-12-07T22:29:32.374Z,26.00
2022-12-07T22:32:09.194Z,25.00
2022-12-07T22:34:47.192Z,28.25
2022-12-07T22:37:15.353Z,26.25
2022-12-07T22:39:43.843Z,23.75
2022-12-07T22:42:12.096Z,25.50
2022-12-07T22:44:43.483Z,27.00
2022-12-07T22:47:14.733Z,25.00
2022-12-07T22:49:43.702Z,26.00
2022-12-07T22:52:11.932Z,25.25
2022-12-07T22:54:42.352Z,25.00
2022-12-07T22:57:10.527Z,26.00
2022-12-07T22:59:39.381Z,26.00
2022-12-07T23:02:07.680Z,25.25
2022-12-07T23:04:36.246Z,25.00
2022-12-07T23:07:04.591Z,24.00
2022-12-07T23:09:33.140Z,24.00
2022-12-07T23:12:20.249Z,24.00
2022-12-07T23:14:50.430Z,25.25
2022-12-07T23:17:18.631Z,24.00
2022-12-07T23:19:50.107Z,25.00
2022-12-07T23:22:22.532Z,24.25
2022-12-07T23:24:51.066Z,25.00
2022-12-07T23:27:19.224Z,23.00
2022-12-07T23:29:48.223Z,24.00
2022-12-07T23:32:16.303Z,23.33
2022-12-07T23:34:44.745Z,24.25
2022-12-07T23:37:12.837Z,23.50
2022-12-07T23:39:41.245Z,23.33
2022-12-07T23:42:09.471Z,24.00
2022-12-07T23:44:37.824Z,22.50
2022-12-07T23:47:05.979Z,23.00
2022-12-07T23:49:35.681Z,24.00
2022-12-07T23:52:04.144Z,24.25
2022-12-07T23:54:33.103Z,23.00
2022-12-07T23:57:01.178Z,23.50
2022-12-07T23:59:29.584Z,23.00
